sensor_id;sensor_type;location;lat;lon;timestamp;P1;durP1;ratioP1;P2;durP2;ratioP2
16326;SDS011;34812;49.846;9.610;2023-04-25T00:00:30;6.03;;;5.43;;
16326;SDS011;34812;49.846;9.610;2023-04-25T00:01:30;5.90;;;5.40;;
16326;SDS011;34812;49.846;9.610;2023-04-25T00:02:33;6.67;;;6.07;;
16326;SDS011;34812;49.846;9.610;2023-04-25T00:03:34;6.00;;;5.53;;
16326;SDS011;34812;49.846;9.610;2023-04-25T00:04:37;5.50;;;5.10;;
16326;SDS011;34812;49.846;9.610;2023-04-25T00:05:38;7.00;;;6.10;;
16326;SDS011;34812;49.846;9.610;2023-04-25T00:06:41;6.57;;;5.97;;
16326;SDS011;34812;49.846;9.610;2023-04-25T00:07:41;7.10;;;6.40;;
16326;SDS011;34812;49.846;9.610;2023-04-25T00:08:43;8.57;;;7.87;;
16326;SDS011;34812;49.846;9.610;2023-04-25T00:09:44;8.97;;;8.07;;
16326;SDS011;34812;49.846;9.610;2023-04-25T00:10:46;7.80;;;7.20;;
16326;SDS011;34812;49.846;9.610;2023-04-25T00:11:47;7.90;;;7.20;;
16326;SDS011;34812;49.846;9.610;2023-04-25T00:12:49;7.40;;;6.80;;
16326;SDS011;34812;49.846;9.610;2023-04-25T00:13:49;7.23;;;6.70;;
16326;SDS011;34812;49.846;9.610;2023-04-25T00:14:51;10.00;;;9.10;;
16326;SDS011;34812;49.846;9.610;2023-04-25T00:15:52;9.43;;;8.63;;
16326;SDS011;34812;49.846;9.610;2023-04-25T00:16:54;9.80;;;8.90;;
16326;SDS011;34812;49.846;9.610;2023-04-25T00:17:55;9.73;;;8.83;;
16326;SDS011;34812;49.846;9.610;2023-04-25T00:18:57;10.23;;;9.30;;
16326;SDS011;34812;49.846;9.610;2023-04-25T00:20:00;11.43;;;10.43;;
16326;SDS011;34812;49.846;9.610;2023-04-25T00:21:05;10.30;;;9.33;;
16326;SDS011;34812;49.846;9.610;2023-04-25T00:22:06;6.97;;;6.43;;
16326;SDS011;34812;49.846;9.610;2023-04-25T00:23:08;8.70;;;7.90;;
16326;SDS011;34812;49.846;9.610;2023-04-25T00:24:10;8.53;;;7.73;;
16326;SDS011;34812;49.846;9.610;2023-04-25T00:25:12;10.23;;;9.27;;
16326;SDS011;34812;49.846;9.610;2023-04-25T00:26:12;8.30;;;7.70;;
16326;SDS011;34812;49.846;9.610;2023-04-25T00:27:14;8.83;;;7.93;;
16326;SDS011;34812;49.846;9.610;2023-04-25T00:28:15;8.77;;;8.00;;
16326;SDS011;34812;49.846;9.610;2023-04-25T00:29:17;8.43;;;7.70;;
16326;SDS011;34812;49.846;9.610;2023-04-25T00:30:18;7.60;;;7.00;;
16326;SDS011;34812;49.846;9.610;2023-04-25T00:31:20;8.13;;;7.40;;
16326;SDS011;34812;49.846;9.610;2023-04-25T00:32:20;8.40;;;7.60;;
16326;SDS011;34812;49.846;9.610;2023-04-25T00:33:22;8.33;;;7.57;;
16326;SDS011;34812;49.846;9.610;2023-04-25T00:34:23;8.47;;;7.63;;
16326;SDS011;34812;49.846;9.610;2023-04-25T00:35:26;7.63;;;6.93;;
16326;SDS011;34812;49.846;9.610;2023-04-25T00:36:27;9.20;;;8.00;;
16326;SDS011;34812;49.846;9.610;2023-04-25T00:37:29;8.53;;;7.63;;
16326;SDS011;34812;49.846;9.610;2023-04-25T00:38:30;7.47;;;6.70;;
16326;SDS011;34812;49.846;9.610;2023-04-25T00:39:31;7.83;;;6.83;;
16326;SDS011;34812;49.846;9.610;2023-04-25T00:40:32;8.20;;;6.10;;
16326;SDS011;34812;49.846;9.610;2023-04-25T00:41:34;7.70;;;6.63;;
16326;SDS011;34812;49.846;9.610;2023-04-25T00:42:36;6.63;;;6.03;;
16326;SDS011;34812;49.846;9.610;2023-04-25T00:43:39;8.07;;;7.27;;
16326;SDS011;34812;49.846;9.610;2023-04-25T00:44:40;7.80;;;6.70;;
16326;SDS011;34812;49.846;9.610;2023-04-25T00:45:43;7.70;;;6.00;;
16326;SDS011;34812;49.846;9.610;2023-04-25T00:46:46;6.87;;;6.17;;
16326;SDS011;34812;49.846;9.610;2023-04-25T00:47:49;6.50;;;5.90;;
16326;SDS011;34812;49.846;9.610;2023-04-25T00:48:50;7.27;;;6.47;;
16326;SDS011;34812;49.846;9.610;2023-04-25T00:49:52;8.63;;;7.73;;
16326;SDS011;34812;49.846;9.610;2023-04-25T00:50:55;6.87;;;6.20;;
16326;SDS011;34812;49.846;9.610;2023-04-25T00:51:59;6.20;;;5.70;;
16326;SDS011;34812;49.846;9.610;2023-04-25T00:53:01;8.93;;;8.03;;
16326;SDS011;34812;49.846;9.610;2023-04-25T00:54:02;6.87;;;6.27;;
16326;SDS011;34812;49.846;9.610;2023-04-25T00:55:04;6.70;;;6.20;;
16326;SDS011;34812;49.846;9.610;2023-04-25T00:56:06;5.90;;;5.40;;
16326;SDS011;34812;49.846;9.610;2023-04-25T00:57:07;7.00;;;6.07;;
16326;SDS011;34812;49.846;9.610;2023-04-25T00:58:08;6.60;;;6.00;;
16326;SDS011;34812;49.846;9.610;2023-04-25T00:59:10;8.83;;;7.37;;
16326;SDS011;34812;49.846;9.610;2023-04-25T01:00:13;6.47;;;5.87;;
16326;SDS011;34812;49.846;9.610;2023-04-25T01:01:15;5.67;;;5.27;;
16326;SDS011;34812;49.846;9.610;2023-04-25T01:02:16;4.77;;;4.27;;
16326;SDS011;34812;49.846;9.610;2023-04-25T01:03:18;5.07;;;4.53;;
16326;SDS011;34812;49.846;9.610;2023-04-25T01:04:20;5.00;;;4.53;;
16326;SDS011;34812;49.846;9.610;2023-04-25T01:05:22;7.17;;;6.30;;
16326;SDS011;34812;49.846;9.610;2023-04-25T01:06:24;7.90;;;7.10;;
16326;SDS011;34812;49.846;9.610;2023-04-25T01:07:27;10.87;;;8.30;;
16326;SDS011;34812;49.846;9.610;2023-04-25T01:08:28;10.13;;;7.20;;
16326;SDS011;34812;49.846;9.610;2023-04-25T01:09:30;9.77;;;8.77;;
16326;SDS011;34812;49.846;9.610;2023-04-25T01:10:31;7.87;;;6.43;;
16326;SDS011;34812;49.846;9.610;2023-04-25T01:11:33;5.10;;;4.70;;
16326;SDS011;34812;49.846;9.610;2023-04-25T01:12:34;7.20;;;5.00;;
16326;SDS011;34812;49.846;9.610;2023-04-25T01:13:36;8.83;;;6.60;;
16326;SDS011;34812;49.846;9.610;2023-04-25T01:14:37;7.23;;;6.40;;
16326;SDS011;34812;49.846;9.610;2023-04-25T01:15:39;12.93;;;9.63;;
16326;SDS011;34812;49.846;9.610;2023-04-25T01:16:40;6.80;;;5.27;;
16326;SDS011;34812;49.846;9.610;2023-04-25T01:17:42;4.47;;;4.07;;
16326;SDS011;34812;49.846;9.610;2023-04-25T01:18:45;4.90;;;4.40;;
16326;SDS011;34812;49.846;9.610;2023-04-25T01:19:47;5.37;;;4.70;;
16326;SDS011;34812;49.846;9.610;2023-04-25T01:20:49;4.53;;;4.23;;
16326;SDS011;34812;49.846;9.610;2023-04-25T01:21:54;5.60;;;4.87;;
16326;SDS011;34812;49.846;9.610;2023-04-25T01:22:55;5.40;;;4.90;;
16326;SDS011;34812;49.846;9.610;2023-04-25T01:23:57;4.60;;;4.30;;
16326;SDS011;34812;49.846;9.610;2023-04-25T01:24:58;4.33;;;3.93;;
16326;SDS011;34812;49.846;9.610;2023-04-25T01:26:01;4.70;;;4.40;;
16326;SDS011;34812;49.846;9.610;2023-04-25T01:27:03;4.27;;;3.97;;
16326;SDS011;34812;49.846;9.610;2023-04-25T01:28:05;4.80;;;4.40;;
16326;SDS011;34812;49.846;9.610;2023-04-25T01:29:07;3.70;;;3.50;;
16326;SDS011;34812;49.846;9.610;2023-04-25T01:30:09;4.90;;;4.47;;
16326;SDS011;34812;49.846;9.610;2023-04-25T01:31:12;5.83;;;5.30;;
16326;SDS011;34812;49.846;9.610;2023-04-25T01:32:14;4.50;;;4.20;;
16326;SDS011;34812;49.846;9.610;2023-04-25T01:33:16;5.17;;;4.50;;
16326;SDS011;34812;49.846;9.610;2023-04-25T01:34:20;4.60;;;4.30;;
16326;SDS011;34812;49.846;9.610;2023-04-25T01:35:21;4.63;;;4.20;;
16326;SDS011;34812;49.846;9.610;2023-04-25T01:36:27;5.93;;;5.17;;
16326;SDS011;34812;49.846;9.610;2023-04-25T01:37:29;6.33;;;5.43;;
16326;SDS011;34812;49.846;9.610;2023-04-25T01:38:31;8.67;;;7.23;;
16326;SDS011;34812;49.846;9.610;2023-04-25T01:39:34;5.40;;;4.93;;
16326;SDS011;34812;49.846;9.610;2023-04-25T01:40:37;5.27;;;4.87;;
16326;SDS011;34812;49.846;9.610;2023-04-25T01:41:40;6.83;;;6.30;;
16326;SDS011;34812;49.846;9.610;2023-04-25T01:42:43;6.13;;;5.53;;
16326;SDS011;34812;49.846;9.610;2023-04-25T01:43:44;5.67;;;5.17;;
16326;SDS011;34812;49.846;9.610;2023-04-25T01:44:46;5.13;;;4.73;;
16326;SDS011;34812;49.846;9.610;2023-04-25T01:45:47;5.40;;;5.00;;
16326;SDS011;34812;49.846;9.610;2023-04-25T01:46:50;5.90;;;5.40;;
16326;SDS011;34812;49.846;9.610;2023-04-25T01:47:51;5.00;;;4.00;;
16326;SDS011;34812;49.846;9.610;2023-04-25T01:48:53;4.53;;;4.13;;
16326;SDS011;34812;49.846;9.610;2023-04-25T01:49:54;6.60;;;4.77;;
16326;SDS011;34812;49.846;9.610;2023-04-25T01:50:56;4.50;;;4.13;;
16326;SDS011;34812;49.846;9.610;2023-04-25T01:51:57;4.60;;;4.20;;
16326;SDS011;34812;49.846;9.610;2023-04-25T01:53:01;3.87;;;3.60;;
16326;SDS011;34812;49.846;9.610;2023-04-25T01:54:02;4.07;;;3.63;;
16326;SDS011;34812;49.846;9.610;2023-04-25T01:55:05;3.97;;;3.67;;
16326;SDS011;34812;49.846;9.610;2023-04-25T01:56:08;4.00;;;3.73;;
16326;SDS011;34812;49.846;9.610;2023-04-25T01:57:11;4.07;;;3.70;;
16326;SDS011;34812;49.846;9.610;2023-04-25T01:58:13;4.00;;;3.70;;
16326;SDS011;34812;49.846;9.610;2023-04-25T01:59:34;4.80;;;4.50;;
16326;SDS011;34812;49.846;9.610;2023-04-25T02:00:50;3.17;;;2.97;;
16326;SDS011;34812;49.846;9.610;2023-04-25T02:01:52;3.57;;;3.27;;
16326;SDS011;34812;49.846;9.610;2023-04-25T02:03:01;4.10;;;3.80;;
16326;SDS011;34812;49.846;9.610;2023-04-25T02:04:07;4.53;;;4.13;;
16326;SDS011;34812;49.846;9.610;2023-04-25T02:05:10;4.20;;;3.90;;
16326;SDS011;34812;49.846;9.610;2023-04-25T02:06:13;3.93;;;3.73;;
16326;SDS011;34812;49.846;9.610;2023-04-25T02:07:17;3.90;;;3.50;;
16326;SDS011;34812;49.846;9.610;2023-04-25T02:08:27;4.10;;;3.70;;
16326;SDS011;34812;49.846;9.610;2023-04-25T02:09:29;4.13;;;3.83;;
16326;SDS011;34812;49.846;9.610;2023-04-25T02:10:31;4.27;;;3.97;;
16326;SDS011;34812;49.846;9.610;2023-04-25T02:11:49;3.43;;;3.13;;
16326;SDS011;34812;49.846;9.610;2023-04-25T02:13:11;3.90;;;3.60;;
16326;SDS011;34812;49.846;9.610;2023-04-25T02:14:23;3.70;;;3.40;;
16326;SDS011;34812;49.846;9.610;2023-04-25T02:15:36;3.60;;;3.30;;
16326;SDS011;34812;49.846;9.610;2023-04-25T02:16:48;3.60;;;3.30;;
16326;SDS011;34812;49.846;9.610;2023-04-25T02:17:51;2.67;;;2.57;;
16326;SDS011;34812;49.846;9.610;2023-04-25T02:18:52;3.80;;;3.20;;
16326;SDS011;34812;49.846;9.610;2023-04-25T02:19:54;6.03;;;3.10;;
16326;SDS011;34812;49.846;9.610;2023-04-25T02:20:55;3.73;;;3.53;;
16326;SDS011;34812;49.846;9.610;2023-04-25T02:21:57;3.20;;;3.00;;
16326;SDS011;34812;49.846;9.610;2023-04-25T02:22:58;3.23;;;3.03;;
16326;SDS011;34812;49.846;9.610;2023-04-25T02:24:03;3.30;;;3.10;;
16326;SDS011;34812;49.846;9.610;2023-04-25T02:25:05;2.97;;;2.77;;
16326;SDS011;34812;49.846;9.610;2023-04-25T02:26:07;3.00;;;2.80;;
16326;SDS011;34812;49.846;9.610;2023-04-25T02:27:08;3.03;;;2.77;;
16326;SDS011;34812;49.846;9.610;2023-04-25T02:28:10;4.30;;;2.83;;
16326;SDS011;34812;49.846;9.610;2023-04-25T02:29:11;3.10;;;2.90;;
16326;SDS011;34812;49.846;9.610;2023-04-25T02:30:16;3.20;;;3.00;;
16326;SDS011;34812;49.846;9.610;2023-04-25T02:31:17;3.20;;;2.90;;
16326;SDS011;34812;49.846;9.610;2023-04-25T02:32:18;3.40;;;3.20;;
16326;SDS011;34812;49.846;9.610;2023-04-25T02:33:21;3.37;;;3.13;;
16326;SDS011;34812;49.846;9.610;2023-04-25T02:34:21;3.00;;;2.80;;
16326;SDS011;34812;49.846;9.610;2023-04-25T02:35:23;3.00;;;2.80;;
16326;SDS011;34812;49.846;9.610;2023-04-25T02:36:26;2.80;;;2.60;;
16326;SDS011;34812;49.846;9.610;2023-04-25T02:37:30;2.80;;;2.70;;
16326;SDS011;34812;49.846;9.610;2023-04-25T02:38:31;3.10;;;2.90;;
16326;SDS011;34812;49.846;9.610;2023-04-25T02:39:34;3.63;;;3.33;;
16326;SDS011;34812;49.846;9.610;2023-04-25T02:40:35;3.93;;;3.73;;
16326;SDS011;34812;49.846;9.610;2023-04-25T02:41:37;2.87;;;2.73;;
16326;SDS011;34812;49.846;9.610;2023-04-25T02:42:38;3.83;;;3.53;;
16326;SDS011;34812;49.846;9.610;2023-04-25T02:43:40;3.20;;;3.00;;
16326;SDS011;34812;49.846;9.610;2023-04-25T02:44:40;3.70;;;3.50;;
16326;SDS011;34812;49.846;9.610;2023-04-25T02:45:42;3.73;;;3.43;;
16326;SDS011;34812;49.846;9.610;2023-04-25T02:46:43;3.60;;;3.30;;
16326;SDS011;34812;49.846;9.610;2023-04-25T02:47:45;3.60;;;3.40;;
16326;SDS011;34812;49.846;9.610;2023-04-25T02:48:45;3.60;;;3.40;;
16326;SDS011;34812;49.846;9.610;2023-04-25T02:49:47;4.00;;;3.70;;
16326;SDS011;34812;49.846;9.610;2023-04-25T02:50:48;3.27;;;3.07;;
16326;SDS011;34812;49.846;9.610;2023-04-25T02:51:50;3.60;;;3.40;;
16326;SDS011;34812;49.846;9.610;2023-04-25T02:52:51;3.97;;;3.67;;
16326;SDS011;34812;49.846;9.610;2023-04-25T02:53:58;4.30;;;3.97;;
16326;SDS011;34812;49.846;9.610;2023-04-25T02:55:00;3.70;;;3.40;;
16326;SDS011;34812;49.846;9.610;2023-04-25T02:56:03;3.80;;;3.50;;
16326;SDS011;34812;49.846;9.610;2023-04-25T02:57:04;4.20;;;3.80;;
16326;SDS011;34812;49.846;9.610;2023-04-25T02:58:10;3.40;;;3.20;;
16326;SDS011;34812;49.846;9.610;2023-04-25T02:59:19;3.57;;;3.37;;
16326;SDS011;34812;49.846;9.610;2023-04-25T03:00:20;4.10;;;3.80;;
16326;SDS011;34812;49.846;9.610;2023-04-25T03:01:23;4.30;;;4.00;;
16326;SDS011;34812;49.846;9.610;2023-04-25T03:02:24;4.67;;;4.27;;
16326;SDS011;34812;49.846;9.610;2023-04-25T03:03:25;4.00;;;3.80;;
16326;SDS011;34812;49.846;9.610;2023-04-25T03:04:26;4.07;;;3.77;;
16326;SDS011;34812;49.846;9.610;2023-04-25T03:05:29;3.80;;;3.50;;
16326;SDS011;34812;49.846;9.610;2023-04-25T03:06:29;4.50;;;4.20;;
16326;SDS011;34812;49.846;9.610;2023-04-25T03:07:31;4.40;;;4.10;;
16326;SDS011;34812;49.846;9.610;2023-04-25T03:08:32;4.20;;;3.90;;
16326;SDS011;34812;49.846;9.610;2023-04-25T03:09:35;4.60;;;4.30;;
16326;SDS011;34812;49.846;9.610;2023-04-25T03:10:38;4.30;;;4.00;;
16326;SDS011;34812;49.846;9.610;2023-04-25T03:11:43;4.53;;;4.23;;
16326;SDS011;34812;49.846;9.610;2023-04-25T03:12:44;4.90;;;4.50;;
16326;SDS011;34812;49.846;9.610;2023-04-25T03:13:46;4.83;;;4.43;;
16326;SDS011;34812;49.846;9.610;2023-04-25T03:14:47;4.80;;;4.50;;
16326;SDS011;34812;49.846;9.610;2023-04-25T03:15:49;4.73;;;4.33;;
16326;SDS011;34812;49.846;9.610;2023-04-25T03:16:52;5.20;;;4.80;;
16326;SDS011;34812;49.846;9.610;2023-04-25T03:17:54;4.70;;;4.30;;
16326;SDS011;34812;49.846;9.610;2023-04-25T03:18:55;5.40;;;5.00;;
16326;SDS011;34812;49.846;9.610;2023-04-25T03:19:56;5.33;;;4.93;;
16326;SDS011;34812;49.846;9.610;2023-04-25T03:20:57;6.07;;;5.57;;
16326;SDS011;34812;49.846;9.610;2023-04-25T03:21:59;5.83;;;5.33;;
16326;SDS011;34812;49.846;9.610;2023-04-25T03:23:01;6.13;;;5.73;;
16326;SDS011;34812;49.846;9.610;2023-04-25T03:24:03;5.33;;;4.90;;
16326;SDS011;34812;49.846;9.610;2023-04-25T03:25:06;6.23;;;5.63;;
16326;SDS011;34812;49.846;9.610;2023-04-25T03:26:10;7.77;;;6.50;;
16326;SDS011;34812;49.846;9.610;2023-04-25T03:27:11;6.57;;;6.03;;
16326;SDS011;34812;49.846;9.610;2023-04-25T03:28:13;6.60;;;6.00;;
16326;SDS011;34812;49.846;9.610;2023-04-25T03:29:14;7.30;;;6.70;;
16326;SDS011;34812;49.846;9.610;2023-04-25T03:30:16;7.83;;;7.20;;
16326;SDS011;34812;49.846;9.610;2023-04-25T03:31:19;6.57;;;5.97;;
16326;SDS011;34812;49.846;9.610;2023-04-25T03:32:20;6.40;;;5.90;;
16326;SDS011;34812;49.846;9.610;2023-04-25T03:33:21;7.37;;;6.77;;
16326;SDS011;34812;49.846;9.610;2023-04-25T03:34:23;7.53;;;6.13;;
16326;SDS011;34812;49.846;9.610;2023-04-25T03:35:24;7.17;;;6.57;;
16326;SDS011;34812;49.846;9.610;2023-04-25T03:36:26;7.23;;;6.53;;
16326;SDS011;34812;49.846;9.610;2023-04-25T03:37:28;7.00;;;6.40;;
16326;SDS011;34812;49.846;9.610;2023-04-25T03:38:29;7.40;;;6.80;;
16326;SDS011;34812;49.846;9.610;2023-04-25T03:39:32;7.47;;;6.87;;
16326;SDS011;34812;49.846;9.610;2023-04-25T03:40:33;7.20;;;6.60;;
16326;SDS011;34812;49.846;9.610;2023-04-25T03:41:56;8.37;;;7.67;;
16326;SDS011;34812;49.846;9.610;2023-04-25T03:42:58;8.03;;;7.33;;
16326;SDS011;34812;49.846;9.610;2023-04-25T03:43:59;7.63;;;6.93;;
16326;SDS011;34812;49.846;9.610;2023-04-25T03:45:01;7.53;;;6.83;;
16326;SDS011;34812;49.846;9.610;2023-04-25T03:46:02;7.43;;;6.73;;
16326;SDS011;34812;49.846;9.610;2023-04-25T03:47:03;6.83;;;6.23;;
16326;SDS011;34812;49.846;9.610;2023-04-25T03:48:04;6.37;;;5.93;;
16326;SDS011;34812;49.846;9.610;2023-04-25T03:49:07;6.77;;;6.27;;
16326;SDS011;34812;49.846;9.610;2023-04-25T03:50:26;6.77;;;6.17;;
16326;SDS011;34812;49.846;9.610;2023-04-25T03:51:28;7.03;;;6.33;;
16326;SDS011;34812;49.846;9.610;2023-04-25T03:52:29;7.20;;;6.60;;
16326;SDS011;34812;49.846;9.610;2023-04-25T03:53:30;6.57;;;6.03;;
16326;SDS011;34812;49.846;9.610;2023-04-25T03:54:50;7.60;;;7.00;;
16326;SDS011;34812;49.846;9.610;2023-04-25T03:55:53;7.43;;;6.73;;
16326;SDS011;34812;49.846;9.610;2023-04-25T03:56:54;8.20;;;7.50;;
16326;SDS011;34812;49.846;9.610;2023-04-25T03:58:01;8.70;;;7.90;;
16326;SDS011;34812;49.846;9.610;2023-04-25T03:59:01;7.83;;;7.13;;
16326;SDS011;34812;49.846;9.610;2023-04-25T04:00:05;8.50;;;7.87;;
16326;SDS011;34812;49.846;9.610;2023-04-25T04:01:13;8.13;;;7.47;;
16326;SDS011;34812;49.846;9.610;2023-04-25T04:02:15;8.50;;;7.47;;
16326;SDS011;34812;49.846;9.610;2023-04-25T04:03:17;7.83;;;7.27;;
16326;SDS011;34812;49.846;9.610;2023-04-25T04:04:20;8.07;;;7.47;;
16326;SDS011;34812;49.846;9.610;2023-04-25T04:05:21;8.03;;;7.43;;
16326;SDS011;34812;49.846;9.610;2023-04-25T04:06:27;8.50;;;7.80;;
16326;SDS011;34812;49.846;9.610;2023-04-25T04:07:36;7.87;;;7.17;;
16326;SDS011;34812;49.846;9.610;2023-04-25T04:08:41;8.87;;;8.17;;
16326;SDS011;34812;49.846;9.610;2023-04-25T04:09:43;8.80;;;8.00;;
16326;SDS011;34812;49.846;9.610;2023-04-25T04:10:56;8.40;;;7.70;;
16326;SDS011;34812;49.846;9.610;2023-04-25T04:11:58;9.47;;;8.70;;
16326;SDS011;34812;49.846;9.610;2023-04-25T04:13:03;9.37;;;8.50;;
16326;SDS011;34812;49.846;9.610;2023-04-25T04:14:04;9.90;;;9.17;;
16326;SDS011;34812;49.846;9.610;2023-04-25T04:15:06;8.70;;;8.00;;
16326;SDS011;34812;49.846;9.610;2023-04-25T04:16:08;9.50;;;8.63;;
16326;SDS011;34812;49.846;9.610;2023-04-25T04:17:11;9.20;;;8.37;;
16326;SDS011;34812;49.846;9.610;2023-04-25T04:18:12;10.10;;;9.23;;
16326;SDS011;34812;49.846;9.610;2023-04-25T04:19:14;9.73;;;8.87;;
16326;SDS011;34812;49.846;9.610;2023-04-25T04:20:19;9.40;;;8.53;;
16326;SDS011;34812;49.846;9.610;2023-04-25T04:21:21;10.63;;;9.50;;
16326;SDS011;34812;49.846;9.610;2023-04-25T04:22:22;9.93;;;9.03;;
16326;SDS011;34812;49.846;9.610;2023-04-25T04:23:25;10.83;;;9.83;;
16326;SDS011;34812;49.846;9.610;2023-04-25T04:24:28;9.47;;;8.67;;
16326;SDS011;34812;49.846;9.610;2023-04-25T04:25:34;10.33;;;9.43;;
16326;SDS011;34812;49.846;9.610;2023-04-25T04:26:54;10.47;;;9.53;;
16326;SDS011;34812;49.846;9.610;2023-04-25T04:28:24;10.60;;;9.70;;
16326;SDS011;34812;49.846;9.610;2023-04-25T04:29:34;9.33;;;8.53;;
16326;SDS011;34812;49.846;9.610;2023-04-25T04:30:49;9.33;;;8.53;;
16326;SDS011;34812;49.846;9.610;2023-04-25T04:31:52;9.00;;;8.30;;
16326;SDS011;34812;49.846;9.610;2023-04-25T04:32:54;10.53;;;9.43;;
16326;SDS011;34812;49.846;9.610;2023-04-25T04:33:56;10.00;;;9.17;;
16326;SDS011;34812;49.846;9.610;2023-04-25T04:34:56;11.80;;;10.77;;
16326;SDS011;34812;49.846;9.610;2023-04-25T04:36:00;10.87;;;9.87;;
16326;SDS011;34812;49.846;9.610;2023-04-25T04:37:02;12.20;;;10.90;;
16326;SDS011;34812;49.846;9.610;2023-04-25T04:38:03;11.20;;;10.00;;
16326;SDS011;34812;49.846;9.610;2023-04-25T04:39:08;13.00;;;11.50;;
16326;SDS011;34812;49.846;9.610;2023-04-25T04:40:18;11.20;;;10.30;;
16326;SDS011;34812;49.846;9.610;2023-04-25T04:41:35;10.90;;;9.97;;
16326;SDS011;34812;49.846;9.610;2023-04-25T04:42:46;11.33;;;10.17;;
16326;SDS011;34812;49.846;9.610;2023-04-25T04:44:01;10.63;;;9.73;;
16326;SDS011;34812;49.846;9.610;2023-04-25T04:45:23;10.37;;;9.47;;
16326;SDS011;34812;49.846;9.610;2023-04-25T04:46:40;11.03;;;10.13;;
16326;SDS011;34812;49.846;9.610;2023-04-25T04:48:00;11.50;;;10.50;;
16326;SDS011;34812;49.846;9.610;2023-04-25T04:49:18;11.17;;;10.20;;
16326;SDS011;34812;49.846;9.610;2023-04-25T04:50:42;10.80;;;10.00;;
16326;SDS011;34812;49.846;9.610;2023-04-25T04:51:58;10.27;;;9.43;;
16326;SDS011;34812;49.846;9.610;2023-04-25T04:53:36;9.27;;;8.47;;
16326;SDS011;34812;49.846;9.610;2023-04-25T04:54:46;9.67;;;8.87;;
16326;SDS011;34812;49.846;9.610;2023-04-25T04:56:01;9.27;;;8.47;;
16326;SDS011;34812;49.846;9.610;2023-04-25T04:57:21;10.10;;;9.20;;
16326;SDS011;34812;49.846;9.610;2023-04-25T04:58:48;9.33;;;8.50;;
16326;SDS011;34812;49.846;9.610;2023-04-25T05:00:11;8.97;;;8.20;;
16326;SDS011;34812;49.846;9.610;2023-04-25T05:01:27;9.10;;;8.30;;
16326;SDS011;34812;49.846;9.610;2023-04-25T05:02:33;9.87;;;9.03;;
16326;SDS011;34812;49.846;9.610;2023-04-25T05:03:51;8.80;;;8.10;;
16326;SDS011;34812;49.846;9.610;2023-04-25T05:05:08;9.33;;;8.37;;
16326;SDS011;34812;49.846;9.610;2023-04-25T05:06:24;14.43;;;12.40;;
16326;SDS011;34812;49.846;9.610;2023-04-25T05:07:46;15.83;;;13.60;;
16326;SDS011;34812;49.846;9.610;2023-04-25T05:09:10;17.07;;;14.40;;
16326;SDS011;34812;49.846;9.610;2023-04-25T05:10:28;14.00;;;12.60;;
16326;SDS011;34812;49.846;9.610;2023-04-25T05:11:30;15.67;;;13.97;;
16326;SDS011;34812;49.846;9.610;2023-04-25T05:12:51;22.40;;;18.63;;
16326;SDS011;34812;49.846;9.610;2023-04-25T05:14:17;15.67;;;14.17;;
16326;SDS011;34812;49.846;9.610;2023-04-25T05:15:38;9.90;;;9.00;;
16326;SDS011;34812;49.846;9.610;2023-04-25T05:16:52;11.70;;;10.60;;
16326;SDS011;34812;49.846;9.610;2023-04-25T05:18:04;11.77;;;10.23;;
16326;SDS011;34812;49.846;9.610;2023-04-25T05:19:15;16.33;;;12.77;;
16326;SDS011;34812;49.846;9.610;2023-04-25T05:20:24;23.97;;;17.17;;
16326;SDS011;34812;49.846;9.610;2023-04-25T05:21:26;52.00;;;35.27;;
16326;SDS011;34812;49.846;9.610;2023-04-25T05:22:36;16.43;;;14.63;;
16326;SDS011;34812;49.846;9.610;2023-04-25T05:23:47;15.13;;;13.53;;
16326;SDS011;34812;49.846;9.610;2023-04-25T05:25:19;13.40;;;12.03;;
16326;SDS011;34812;49.846;9.610;2023-04-25T05:26:31;12.50;;;11.07;;
16326;SDS011;34812;49.846;9.610;2023-04-25T05:27:55;14.87;;;13.23;;
16326;SDS011;34812;49.846;9.610;2023-04-25T05:29:24;13.80;;;12.40;;
16326;SDS011;34812;49.846;9.610;2023-04-25T05:30:46;12.23;;;11.00;;
16326;SDS011;34812;49.846;9.610;2023-04-25T05:32:02;10.33;;;9.23;;
16326;SDS011;34812;49.846;9.610;2023-04-25T05:33:04;9.53;;;8.63;;
16326;SDS011;34812;49.846;9.610;2023-04-25T05:34:06;10.40;;;9.40;;
16326;SDS011;34812;49.846;9.610;2023-04-25T05:35:23;7.40;;;6.70;;
16326;SDS011;34812;49.846;9.610;2023-04-25T05:36:25;9.90;;;7.57;;
16326;SDS011;34812;49.846;9.610;2023-04-25T05:37:26;9.87;;;8.03;;
16326;SDS011;34812;49.846;9.610;2023-04-25T05:38:37;9.57;;;8.60;;
16326;SDS011;34812;49.846;9.610;2023-04-25T05:39:41;8.97;;;8.10;;
16326;SDS011;34812;49.846;9.610;2023-04-25T05:41:00;8.63;;;7.77;;
16326;SDS011;34812;49.846;9.610;2023-04-25T05:42:22;8.70;;;8.00;;
16326;SDS011;34812;49.846;9.610;2023-04-25T05:43:27;8.03;;;7.20;;
16326;SDS011;34812;49.846;9.610;2023-04-25T05:44:44;8.87;;;7.97;;
16326;SDS011;34812;49.846;9.610;2023-04-25T05:45:58;8.63;;;7.73;;
16326;SDS011;34812;49.846;9.610;2023-04-25T05:47:04;10.13;;;8.30;;
16326;SDS011;34812;49.846;9.610;2023-04-25T05:48:25;9.40;;;7.07;;
16326;SDS011;34812;49.846;9.610;2023-04-25T05:49:49;8.20;;;7.40;;
16326;SDS011;34812;49.846;9.610;2023-04-25T05:51:01;9.93;;;8.00;;
16326;SDS011;34812;49.846;9.610;2023-04-25T05:52:20;8.60;;;7.73;;
16326;SDS011;34812;49.846;9.610;2023-04-25T05:53:30;8.60;;;7.70;;
16326;SDS011;34812;49.846;9.610;2023-04-25T05:54:34;8.40;;;7.63;;
16326;SDS011;34812;49.846;9.610;2023-04-25T05:55:36;8.43;;;7.53;;
16326;SDS011;34812;49.846;9.610;2023-04-25T05:56:52;7.80;;;7.10;;
16326;SDS011;34812;49.846;9.610;2023-04-25T05:57:53;11.63;;;7.47;;
16326;SDS011;34812;49.846;9.610;2023-04-25T05:58:54;7.97;;;7.07;;
16326;SDS011;34812;49.846;9.610;2023-04-25T05:59:56;8.97;;;7.37;;
16326;SDS011;34812;49.846;9.610;2023-04-25T06:01:14;8.53;;;7.63;;
16326;SDS011;34812;49.846;9.610;2023-04-25T06:02:18;10.00;;;7.23;;
16326;SDS011;34812;49.846;9.610;2023-04-25T06:03:19;9.33;;;7.33;;
16326;SDS011;34812;49.846;9.610;2023-04-25T06:04:21;10.83;;;7.73;;
16326;SDS011;34812;49.846;9.610;2023-04-25T06:05:22;9.00;;;7.97;;
16326;SDS011;34812;49.846;9.610;2023-04-25T06:06:25;9.97;;;7.37;;
16326;SDS011;34812;49.846;9.610;2023-04-25T06:07:27;7.07;;;6.33;;
16326;SDS011;34812;49.846;9.610;2023-04-25T06:08:28;10.10;;;7.33;;
16326;SDS011;34812;49.846;9.610;2023-04-25T06:09:30;7.83;;;6.97;;
16326;SDS011;34812;49.846;9.610;2023-04-25T06:10:31;9.83;;;6.63;;
16326;SDS011;34812;49.846;9.610;2023-04-25T06:11:32;8.27;;;6.70;;
16326;SDS011;34812;49.846;9.610;2023-04-25T06:12:33;7.87;;;7.03;;
16326;SDS011;34812;49.846;9.610;2023-04-25T06:13:37;7.47;;;6.53;;
16326;SDS011;34812;49.846;9.610;2023-04-25T06:14:38;8.97;;;7.30;;
16326;SDS011;34812;49.846;9.610;2023-04-25T06:15:40;7.43;;;6.73;;
16326;SDS011;34812;49.846;9.610;2023-04-25T06:16:42;10.43;;;7.10;;
16326;SDS011;34812;49.846;9.610;2023-04-25T06:17:44;7.03;;;6.43;;
16326;SDS011;34812;49.846;9.610;2023-04-25T06:18:45;7.10;;;6.20;;
16326;SDS011;34812;49.846;9.610;2023-04-25T06:19:47;8.93;;;6.97;;
16326;SDS011;34812;49.846;9.610;2023-04-25T06:20:48;8.27;;;7.47;;
16326;SDS011;34812;49.846;9.610;2023-04-25T06:21:52;8.87;;;6.90;;
16326;SDS011;34812;49.846;9.610;2023-04-25T06:22:53;8.23;;;7.27;;
16326;SDS011;34812;49.846;9.610;2023-04-25T06:24:01;7.00;;;6.30;;
16326;SDS011;34812;49.846;9.610;2023-04-25T06:25:03;7.50;;;6.70;;
16326;SDS011;34812;49.846;9.610;2023-04-25T06:26:06;7.23;;;6.60;;
16326;SDS011;34812;49.846;9.610;2023-04-25T06:27:10;8.17;;;6.77;;
16326;SDS011;34812;49.846;9.610;2023-04-25T06:28:13;7.60;;;6.20;;
16326;SDS011;34812;49.846;9.610;2023-04-25T06:29:14;7.10;;;6.07;;
16326;SDS011;34812;49.846;9.610;2023-04-25T06:30:16;7.83;;;6.50;;
16326;SDS011;34812;49.846;9.610;2023-04-25T06:31:23;7.10;;;6.13;;